Time;durP1;ratioP1;P1;durP2;ratioP2;P2;SDS_P1;SDS_P2;PMS_P1;PMS_P2;Temp;Humidity;BMP_temperature;BMP_pressure;BME280_temperature;BME280_humidity;BME280_pressure;Samples;Min_cycle;Max_cycle;Signal;HPM_P1;HPM_P2
2022/06/06 00:00:51;;;;;;;29.08;17.45;;;14.80;99.90;;;;;;5029110;28;20037;-75
2022/06/06 00:03:18;;;;;;;29.58;17.75;;;14.90;99.90;;;;;;5033283;28;20054;-69
2022/06/06 00:05:47;;;;;;;28.60;17.33;;;15.10;99.90;;;;;;5018102;28;20049;-75
2022/06/06 00:08:14;;;;;;;30.92;18.15;;;15.00;99.90;;;;;;5033877;28;20529;-69
2022/06/06 00:10:41;;;;;;;27.08;17.45;;;14.90;99.90;;;;;;5047640;28;20112;-75
2022/06/06 00:13:09;;;;;;;26.25;16.58;;;14.80;99.90;;;;;;5047840;28;20037;-69
2022/06/06 00:15:35;;;;;;;25.60;16.42;;;15.00;99.90;;;;;;5048593;28;20534;-73
2022/06/06 00:18:02;;;;;;;27.70;16.60;;;15.00;99.90;;;;;;5047650;28;20041;-73
2022/06/06 00:20:28;;;;;;;25.83;14.90;;;14.90;99.90;;;;;;5063104;28;20076;-76
2022/06/06 00:22:54;;;;;;;20.50;13.10;;;15.00;99.90;;;;;;5067218;28;20044;-72
2022/06/06 00:25:19;;;;;;;25.52;14.63;;;15.00;99.90;;;;;;5030668;28;20033;-73
2022/06/06 00:27:45;;;;;;;21.02;12.85;;;14.80;99.90;;;;;;5032210;28;20047;-71
2022/06/06 00:30:11;;;;;;;18.73;12.07;;;14.70;99.90;;;;;;5033418;28;20050;-75
2022/06/06 00:35:21;;;;;;;23.40;12.95;;;14.60;99.90;;;;;;5027024;28;20562;-73
2022/06/06 00:37:47;;;;;;;18.75;11.88;;;14.60;99.90;;;;;;5064295;28;20045;-71
2022/06/06 00:40:15;;;;;;;19.05;11.57;;;14.70;99.90;;;;;;5040313;28;20132;-72
2022/06/06 00:42:42;;;;;;;17.95;11.65;;;14.70;99.90;;;;;;5035416;28;20395;-71
2022/06/06 00:45:23;;;;;;;21.65;12.73;;;14.70;99.90;;;;;;5018080;28;20519;-72
2022/06/06 00:48:03;;;;;;;17.20;11.90;;;14.70;99.90;;;;;;5031601;28;20037;-70
2022/06/06 00:50:45;;;;;;;21.80;12.85;;;14.50;99.90;;;;;;5032620;28;20578;-71
2022/06/06 00:53:13;;;;;;;23.02;12.20;;;14.40;99.90;;;;;;5065348;28;20049;-71
2022/06/06 00:55:42;;;;;;;21.08;13.10;;;14.60;99.90;;;;;;5066264;28;20108;-74
2022/06/06 00:58:13;;;;;;;22.30;13.10;;;14.40;99.90;;;;;;5033132;28;20051;-72
2022/06/06 01:00:41;;;;;;;19.67;12.65;;;14.50;99.90;;;;;;5032063;28;20096;-71
2022/06/06 01:03:09;;;;;;;22.88;13.43;;;14.60;99.90;;;;;;5064668;28;20048;-75
2022/06/06 01:05:36;;;;;;;19.08;12.25;;;14.50;99.90;;;;;;5033270;28;20483;-73
2022/06/06 01:08:03;;;;;;;23.20;12.57;;;14.60;99.90;;;;;;5031307;28;20679;-69
2022/06/06 01:10:29;;;;;;;20.65;12.13;;;14.50;99.90;;;;;;5032142;28;20043;-72
2022/06/06 01:12:56;;;;;;;19.88;11.65;;;14.40;99.90;;;;;;5031150;28;20555;-69
2022/06/06 01:15:24;;;;;;;21.67;12.18;;;14.50;99.90;;;;;;5030031;28;20053;-72
2022/06/06 01:18:14;;;;;;;20.38;11.88;;;14.60;99.90;;;;;;5065898;28;20076;-72
2022/06/06 01:21:18;;;;;;;19.20;11.82;;;14.60;99.90;;;;;;5064054;28;20056;-73
2022/06/06 01:24:09;;;;;;;21.48;13.38;;;14.60;99.90;;;;;;5032666;28;20041;-71
2022/06/06 01:27:13;;;;;;;19.27;12.18;;;14.60;99.90;;;;;;5065285;28;20095;-72
2022/06/06 01:29:56;;;;;;;30.42;14.50;;;14.60;99.90;;;;;;5026999;28;20048;-71
2022/06/06 01:32:23;;;;;;;18.30;10.68;;;14.40;99.90;;;;;;5032807;28;20044;-70
2022/06/06 01:34:52;;;;;;;23.33;13.68;;;14.70;99.90;;;;;;5031308;28;20443;-72
2022/06/06 01:37:40;;;;;;;26.60;14.90;;;14.70;99.90;;;;;;5027842;28;20045;-73
2022/06/06 01:40:16;;;;;;;24.35;14.93;;;14.70;99.90;;;;;;5049370;28;20049;-70
2022/06/06 01:43:02;;;;;;;39.10;19.55;;;14.80;99.90;;;;;;5030568;28;20049;-70
2022/06/06 01:45:42;;;;;;;42.60;21.98;;;14.60;99.90;;;;;;5036797;28;20545;-71
2022/06/06 01:48:17;;;;;;;71.90;30.45;;;14.90;99.90;;;;;;5047938;28;20071;-73
2022/06/06 01:50:44;;;;;;;50.22;26.50;;;14.80;99.90;;;;;;5038396;28;20089;-69
2022/06/06 01:53:16;;;;;;;63.58;28.73;;;14.70;99.90;;;;;;5054449;28;20529;-72
2022/06/06 01:55:45;;;;;;;54.47;28.13;;;14.60;99.90;;;;;;5031203;28;20048;-70
2022/06/06 01:58:15;;;;;;;68.57;30.42;;;14.60;99.90;;;;;;5040852;28;20045;-73
2022/06/06 02:00:41;;;;;;;59.72;28.92;;;14.60;99.90;;;;;;5050334;28;20041;-73
2022/06/06 02:03:08;;;;;;;44.65;24.55;;;14.50;99.90;;;;;;5067919;28;20099;-72
2022/06/06 02:05:34;;;;;;;65.88;30.08;;;14.50;99.90;;;;;;5068129;28;20043;-70
2022/06/06 02:07:59;;;;;;;53.38;31.55;;;14.50;99.90;;;;;;5036336;28;20499;-73
2022/06/06 02:10:25;;;;;;;43.67;27.48;;;14.60;99.90;;;;;;5066879;28;20046;-75
2022/06/06 02:12:51;;;;;;;44.17;26.45;;;14.40;99.90;;;;;;5050327;28;20044;-74
2022/06/06 02:15:19;;;;;;;59.92;30.48;;;14.70;99.90;;;;;;5016709;28;20035;-75
2022/06/06 02:17:45;;;;;;;56.35;29.60;;;14.60;99.90;;;;;;5061849;28;20487;-72
2022/06/06 02:20:13;;;;;;;33.88;22.20;;;14.40;99.90;;;;;;5068612;28;20102;-75
2022/06/06 02:22:39;;;;;;;31.67;19.10;;;14.60;99.90;;;;;;5035950;28;20133;-70
2022/06/06 02:25:06;;;;;;;38.28;21.73;;;14.30;99.90;;;;;;5033018;28;20128;-73
2022/06/06 02:27:36;;;;;;;32.72;20.45;;;14.30;99.90;;;;;;5014645;28;20275;-71
2022/06/06 02:30:05;;;;;;;28.58;18.48;;;14.50;99.90;;;;;;5019525;28;20041;-72
2022/06/06 02:32:31;;;;;;;43.78;20.88;;;14.50;99.90;;;;;;5019420;28;20045;-72
2022/06/06 02:34:57;;;;;;;57.88;26.80;;;14.30;99.90;;;;;;5070891;28;20095;-71
2022/06/06 02:37:23;;;;;;;81.05;33.65;;;14.50;99.90;;;;;;5026690;28;20081;-75
2022/06/06 02:39:49;;;;;;;95.25;38.65;;;14.30;99.90;;;;;;5046117;28;20041;-73
2022/06/06 02:42:14;;;;;;;113.70;39.85;;;14.10;99.90;;;;;;5035099;28;20391;-75
2022/06/06 02:44:40;;;;;;;112.07;40.40;;;14.40;99.90;;;;;;5041189;28;20037;-75
2022/06/06 02:47:06;;;;;;;104.40;40.25;;;14.10;99.90;;;;;;5048603;28;20048;-70
2022/06/06 02:49:33;;;;;;;102.28;41.40;;;14.00;99.90;;;;;;5057502;28;20033;-72
2022/06/06 02:52:03;;;;;;;90.45;36.47;;;14.10;99.90;;;;;;5045719;28;20091;-74
2022/06/06 02:54:29;;;;;;;93.15;38.63;;;14.20;99.90;;;;;;5045493;28;20033;-70
2022/06/06 02:56:56;;;;;;;95.05;38.42;;;14.10;99.90;;;;;;5043993;28;20060;-74
2022/06/06 02:59:23;;;;;;;90.25;35.70;;;13.90;99.90;;;;;;5043714;28;20403;-72
2022/06/06 03:01:49;;;;;;;114.55;40.25;;;14.10;99.90;;;;;;5040218;28;20036;-71
2022/06/06 03:04:15;;;;;;;97.32;37.85;;;14.00;99.90;;;;;;5036574;28;20055;-71
2022/06/06 03:07:19;;;;;;;102.70;37.00;;;13.90;99.90;;;;;;5048678;28;20029;-72
2022/06/06 03:10:05;;;;;;;103.60;36.55;;;13.80;99.90;;;;;;5006732;28;20088;-69
2022/06/06 03:12:37;;;;;;;88.28;36.38;;;14.00;99.90;;;;;;5038207;28;20096;-70
2022/06/06 03:15:23;;;;;;;74.28;30.23;;;14.00;99.90;;;;;;5041288;28;20038;-72
2022/06/06 03:21:24;;;;;;;46.88;18.15;;;13.80;99.90;;;;;;4970981;28;20420;-74
2022/06/06 03:24:24;;;;;;;35.05;14.75;;;14.00;99.90;;;;;;5021424;28;20030;-69
2022/06/06 03:26:58;;;;;;;34.17;15.73;;;13.70;99.90;;;;;;5021513;28;20040;-74
2022/06/06 03:29:27;;;;;;;32.38;13.65;;;13.70;99.90;;;;;;5046451;28;20034;-72
2022/06/06 03:32:12;;;;;;;31.48;13.25;;;13.80;99.90;;;;;;5013410;28;20098;-69
2022/06/06 03:34:55;;;;;;;27.83;12.13;;;13.90;99.90;;;;;;5017284;28;20095;-70
2022/06/06 03:37:53;;;;;;;24.92;11.15;;;13.90;99.90;;;;;;5009977;28;20276;-71
2022/06/06 03:40:38;;;;;;;27.75;11.07;;;13.90;99.90;;;;;;4953551;28;20412;-69
2022/06/06 03:43:21;;;;;;;26.02;10.77;;;13.60;99.90;;;;;;5039311;28;20033;-71
2022/06/06 03:46:19;;;;;;;24.17;10.90;;;13.70;99.90;;;;;;5035856;28;20048;-71
2022/06/06 03:49:14;;;;;;;26.98;11.27;;;13.90;99.90;;;;;;4994187;28;20080;-70
2022/06/06 03:52:07;;;;;;;22.85;10.30;;;13.80;99.90;;;;;;5018082;28;20049;-67
2022/06/06 03:54:58;;;;;;;31.98;11.73;;;13.70;99.90;;;;;;5038333;28;20042;-69
2022/06/06 03:57:25;;;;;;;29.38;12.40;;;13.80;99.90;;;;;;5041150;28;20052;-71
2022/06/06 03:59:56;;;;;;;25.35;11.73;;;13.80;99.90;;;;;;5039940;28;20380;-72
2022/06/06 04:02:28;;;;;;;30.30;12.50;;;13.70;99.90;;;;;;5021239;28;20056;-68
2022/06/06 04:04:55;;;;;;;31.73;13.57;;;13.70;99.90;;;;;;5013728;28;20040;-71
2022/06/06 04:07:21;;;;;;;38.50;14.35;;;13.70;99.90;;;;;;5018669;28;20558;-66
2022/06/06 04:09:47;;;;;;;35.28;14.48;;;13.80;99.90;;;;;;5005145;28;20042;-70
2022/06/06 04:12:34;;;;;;;41.97;16.20;;;13.60;99.90;;;;;;5058299;28;20032;-73
2022/06/06 04:15:12;;;;;;;44.58;18.17;;;13.90;99.90;;;;;;5032049;28;20038;-67
2022/06/06 04:18:16;;;;;;;42.97;17.00;;;13.80;99.90;;;;;;5033123;28;20047;-67
2022/06/06 04:20:41;;;;;;;35.38;16.60;;;13.60;99.90;;;;;;5042827;28;20048;-71
2022/06/06 04:23:26;;;;;;;38.13;16.27;;;13.60;99.90;;;;;;5044541;28;20490;-75
2022/06/06 04:26:20;;;;;;;41.63;17.90;;;13.60;99.90;;;;;;5030568;28;20415;-68
2022/06/06 04:29:28;;;;;;;43.30;17.83;;;13.60;99.90;;;;;;4997925;28;20568;-67
2022/06/06 04:32:14;;;;;;;37.75;16.55;;;13.60;99.90;;;;;;4978827;28;20045;-68
2022/06/06 04:34:50;;;;;;;36.13;16.70;;;13.80;99.90;;;;;;5042333;28;20029;-68
2022/06/06 04:37:31;;;;;;;44.92;17.83;;;13.80;99.90;;;;;;5032673;28;20094;-72
2022/06/06 04:40:35;;;;;;;39.22;16.25;;;13.90;99.90;;;;;;5035004;28;20040;-71
2022/06/06 04:43:20;;;;;;;40.72;15.98;;;13.90;99.90;;;;;;5032061;28;20450;-70
2022/06/06 04:46:05;;;;;;;35.30;14.82;;;13.70;99.90;;;;;;5032244;28;20415;-66
2022/06/06 04:48:34;;;;;;;31.38;14.02;;;13.80;99.90;;;;;;5037196;28;20043;-68
2022/06/06 04:51:00;;;;;;;30.85;13.55;;;13.80;99.90;;;;;;5045004;28;20036;-67
2022/06/06 04:53:28;;;;;;;29.48;14.00;;;13.60;99.90;;;;;;5039252;28;20043;-71
2022/06/06 04:55:56;;;;;;;32.30;14.77;;;13.60;99.90;;;;;;5042476;28;20032;-72
2022/06/06 04:58:22;;;;;;;25.67;11.75;;;13.90;99.90;;;;;;5045651;28;20513;-72
2022/06/06 05:00:47;;;;;;;25.35;12.23;;;13.80;99.90;;;;;;5041305;28;20040;-71
2022/06/06 05:03:13;;;;;;;26.15;12.07;;;13.80;99.90;;;;;;5044645;28;20039;-70
2022/06/06 05:05:45;;;;;;;29.92;12.55;;;13.90;99.90;;;;;;5035866;28;20051;-72
2022/06/06 05:08:41;;;;;;;27.98;12.50;;;13.90;99.90;;;;;;5058956;28;20036;-73
2022/06/06 05:11:24;;;;;;;29.92;12.43;;;13.90;99.90;;;;;;5040407;28;20045;-73
2022/06/06 05:14:06;;;;;;;28.77;12.43;;;13.90;99.90;;;;;;5035913;28;20048;-69
2022/06/06 05:16:43;;;;;;;36.88;14.95;;;13.70;99.90;;;;;;5041857;28;20116;-71
2022/06/06 05:19:36;;;;;;;34.90;14.93;;;13.70;99.90;;;;;;5050957;28;20049;-69
2022/06/06 05:22:11;;;;;;;33.47;14.63;;;13.80;99.90;;;;;;5061775;28;20173;-70
2022/06/06 05:24:46;;;;;;;29.23;13.43;;;13.90;99.90;;;;;;5056060;28;20438;-70
2022/06/06 05:27:55;;;;;;;28.42;13.55;;;13.90;99.90;;;;;;5029963;28;20037;-68
2022/06/06 05:30:40;;;;;;;34.25;13.23;;;13.80;99.90;;;;;;4947596;28;20477;-73
2022/06/06 05:33:37;;;;;;;31.77;13.25;;;13.80;99.90;;;;;;5047945;28;20089;-73
2022/06/06 05:36:09;;;;;;;32.45;14.55;;;14.00;99.90;;;;;;5060434;28;20040;-71
2022/06/06 05:38:52;;;;;;;33.78;14.65;;;13.90;99.90;;;;;;5043276;28;20127;-74
2022/06/06 05:41:56;;;;;;;34.72;13.88;;;13.80;99.90;;;;;;5042079;28;20060;-71
2022/06/06 05:44:51;;;;;;;34.50;14.70;;;13.90;99.90;;;;;;5043304;28;20530;-74
2022/06/06 05:47:58;;;;;;;35.10;14.75;;;13.70;99.90;;;;;;5047252;28;20067;-71
2022/06/06 05:50:45;;;;;;;34.75;14.68;;;13.80;99.90;;;;;;5041799;28;20041;-72
2022/06/06 05:53:49;;;;;;;38.30;14.75;;;13.80;99.90;;;;;;5042929;28;20087;-76
2022/06/06 05:56:45;;;;;;;32.67;13.25;;;14.00;99.90;;;;;;5027368;28;20063;-72
2022/06/06 05:59:19;;;;;;;34.25;14.35;;;13.90;99.90;;;;;;5038065;28;20365;-73
2022/06/06 06:01:54;;;;;;;34.42;14.32;;;13.90;99.90;;;;;;5038783;28;20049;-74
2022/06/06 06:04:25;;;;;;;30.08;12.93;;;14.10;99.90;;;;;;5049505;28;20044;-71
2022/06/06 06:07:06;;;;;;;32.67;13.07;;;14.10;99.90;;;;;;5048426;28;20052;-71
2022/06/06 06:10:01;;;;;;;33.58;14.40;;;14.10;99.90;;;;;;5044205;28;20044;-73
2022/06/06 06:12:58;;;;;;;31.27;13.20;;;14.10;99.90;;;;;;5043161;28;20041;-73
2022/06/06 06:15:39;;;;;;;26.52;12.02;;;14.20;99.90;;;;;;5033226;28;20486;-71
2022/06/06 06:18:12;;;;;;;26.65;11.93;;;14.20;99.90;;;;;;5028446;28;20037;-70
2022/06/06 06:20:44;;;;;;;28.13;12.15;;;14.50;99.90;;;;;;5035025;28;20092;-72
2022/06/06 06:23:15;;;;;;;26.00;12.80;;;14.60;99.90;;;;;;5031319;28;20055;-71
2022/06/06 06:25:43;;;;;;;24.20;11.38;;;14.80;99.90;;;;;;5020379;28;20055;-73
2022/06/06 06:28:12;;;;;;;23.35;10.43;;;15.00;99.90;;;;;;5060980;28;20072;-71
2022/06/06 06:31:03;;;;;;;24.60;10.48;;;15.00;99.90;;;;;;5026139;28;20029;-69
2022/06/06 06:33:43;;;;;;;22.15;9.90;;;15.20;99.90;;;;;;5038167;28;20384;-70
2022/06/06 06:36:21;;;;;;;24.02;10.52;;;15.40;99.90;;;;;;5049044;28;20032;-72
2022/06/06 06:39:08;;;;;;;23.45;10.40;;;15.30;99.90;;;;;;5047652;28;20062;-71
2022/06/06 06:41:37;;;;;;;26.83;10.45;;;15.30;99.90;;;;;;5049804;28;20040;-68
2022/06/06 06:44:21;;;;;;;25.25;11.25;;;15.30;99.90;;;;;;5040101;28;20530;-69
2022/06/06 06:47:18;;;;;;;24.63;10.40;;;15.10;99.90;;;;;;5036072;28;20609;-67
2022/06/06 06:50:01;;;;;;;23.20;10.95;;;15.10;99.90;;;;;;5032964;28;20048;-69
2022/06/06 06:52:53;;;;;;;20.67;9.85;;;15.00;99.90;;;;;;5046819;28;20507;-70
2022/06/06 06:55:35;;;;;;;22.60;10.70;;;15.10;99.90;;;;;;5039286;28;20064;-74
2022/06/06 06:58:19;;;;;;;23.80;11.93;;;15.10;99.90;;;;;;5048622;28;20128;-68
2022/06/06 07:01:00;;;;;;;22.48;11.35;;;15.10;99.90;;;;;;5035256;28;20152;-71
2022/06/06 07:09:33;;;;;;;21.65;11.13;;;15.10;99.90;;;;;;5031248;28;20459;-68
2022/06/06 07:12:05;;;;;;;25.75;11.68;;;15.10;99.90;;;;;;5036367;28;20047;-69
2022/06/06 07:15:02;;;;;;;25.58;12.05;;;15.20;99.90;;;;;;5025041;28;20632;-73
2022/06/06 07:17:32;;;;;;;23.30;12.02;;;15.10;99.90;;;;;;5024939;28;20055;-75
2022/06/06 07:20:07;;;;;;;23.58;12.57;;;15.00;99.90;;;;;;5051189;28;20052;-73
2022/06/06 07:23:00;;;;;;;28.17;13.27;;;15.00;99.90;;;;;;5046882;28;20037;-67
2022/06/06 07:25:48;;;;;;;29.88;13.23;;;15.20;99.90;;;;;;5026974;28;20609;-77
2022/06/06 07:28:22;;;;;;;30.67;13.73;;;15.50;99.90;;;;;;5043267;28;20479;-67
2022/06/06 07:31:06;;;;;;;31.23;15.38;;;16.00;99.90;;;;;;5046557;28;20040;-73
2022/06/06 07:33:41;;;;;;;27.55;14.50;;;16.20;99.90;;;;;;5040701;28;20078;-71
2022/06/06 07:36:17;;;;;;;33.08;15.07;;;16.50;99.90;;;;;;5034530;28;20041;-69
2022/06/06 07:38:58;;;;;;;29.98;14.57;;;16.50;99.90;;;;;;5050286;28;20044;-70
2022/06/06 07:41:35;;;;;;;30.80;14.95;;;16.30;99.90;;;;;;5039984;28;20083;-70
2022/06/06 07:44:28;;;;;;;23.13;11.55;;;15.90;99.90;;;;;;5050522;28;20051;-71
2022/06/06 07:47:05;;;;;;;25.17;12.35;;;15.60;99.90;;;;;;5040938;28;20491;-72
2022/06/06 07:49:52;;;;;;;26.10;13.65;;;15.40;99.90;;;;;;5017176;28;20037;-67
2022/06/06 07:52:56;;;;;;;24.50;12.80;;;15.10;99.90;;;;;;5036852;28;20037;-69
2022/06/06 07:55:27;;;;;;;25.10;12.68;;;15.00;99.90;;;;;;5031796;28;20046;-69
2022/06/06 07:58:30;;;;;;;23.63;11.45;;;15.10;99.90;;;;;;5062128;28;20098;-69
2022/06/06 08:01:18;;;;;;;20.58;11.23;;;15.30;99.90;;;;;;5055082;28;20053;-68
2022/06/06 08:03:59;;;;;;;21.73;9.90;;;15.20;99.90;;;;;;5039900;28;20037;-72
2022/06/06 08:07:13;;;;;;;21.13;9.57;;;15.40;99.90;;;;;;5032876;28;20090;-69
2022/06/06 08:10:04;;;;;;;17.45;6.63;;;15.50;99.90;;;;;;5039818;28;20032;-71
2022/06/06 08:13:17;;;;;;;11.45;5.78;;;15.80;99.90;;;;;;5040360;28;20044;-67
2022/06/06 08:15:45;;;;;;;;;;;15.80;99.90;;;;;;5024099;28;20163;-69
2022/06/06 08:18:27;;;;;;;12.77;6.43;;;15.50;99.90;;;;;;5035650;28;19917;-71
2022/06/06 08:21:14;;;;;;;11.90;6.93;;;15.40;99.90;;;;;;5032723;28;20076;-75
2022/06/06 08:23:42;;;;;;;13.13;7.70;;;15.40;99.90;;;;;;5035697;28;20082;-73
2022/06/06 08:26:08;;;;;;;16.02;7.03;;;15.40;99.90;;;;;;5015334;28;20432;-71
2022/06/06 08:28:39;;;;;;;10.05;5.75;;;15.40;99.90;;;;;;5025656;28;20039;-69
2022/06/06 08:31:06;;;;;;;10.02;5.60;;;15.30;99.90;;;;;;5030986;28;20052;-71
2022/06/06 08:33:33;;;;;;;10.40;5.90;;;15.30;99.90;;;;;;5061691;28;20548;-73
2022/06/06 08:36:08;;;;;;;9.02;4.82;;;15.40;99.90;;;;;;5032309;28;20446;-66
2022/06/06 08:38:49;;;;;;;11.00;5.07;;;15.60;99.90;;;;;;5030695;28;20127;-71
2022/06/06 08:41:29;;;;;;;7.70;4.30;;;15.90;99.90;;;;;;5013310;28;20399;-72
2022/06/06 08:44:21;;;;;;;10.20;5.20;;;16.00;99.90;;;;;;5027681;28;20508;-69
2022/06/06 08:47:25;;;;;;;10.50;5.00;;;16.00;99.90;;;;;;5030018;28;20384;-70
2022/06/06 08:53:44;;;;;;;9.18;4.97;;;15.80;99.90;;;;;;5028286;28;20047;-72
2022/06/06 08:56:15;;;;;;;9.68;4.95;;;16.00;99.90;;;;;;5037457;28;20036;-73
2022/06/06 08:59:35;;;;;;;6.80;4.80;;;16.40;99.90;;;;;;5045766;28;20120;-68
2022/06/06 09:02:31;;;;;;;9.48;4.25;;;16.60;99.90;;;;;;5057995;28;20767;-72
2022/06/06 09:05:12;;;;;;;10.45;4.45;;;16.20;99.90;;;;;;5057127;28;20124;-74
2022/06/06 09:07:53;;;;;;;8.00;4.63;;;16.00;99.90;;;;;;5027960;28;20036;-72
2022/06/06 09:10:44;;;;;;;7.72;4.50;;;15.80;99.90;;;;;;5036705;28;20075;-71
2022/06/06 09:13:36;;;;;;;11.23;5.70;;;15.70;99.90;;;;;;5023327;28;20088;-72
2022/06/06 09:16:23;;;;;;;8.73;6.70;;;16.00;99.90;;;;;;5038602;28;20495;-70
2022/06/06 09:19:27;;;;;;;12.05;7.93;;;16.60;99.90;;;;;;5026703;28;20610;-74
2022/06/06 09:22:03;;;;;;;11.85;8.02;;;16.60;99.90;;;;;;4981387;28;20083;-76
2022/06/06 09:25:06;;;;;;;10.13;8.13;;;16.70;99.90;;;;;;5008205;28;20041;-69
2022/06/06 09:28:11;;;;;;;13.68;7.57;;;16.60;99.90;;;;;;5016171;28;20487;-72
2022/06/06 09:31:07;;;;;;;12.65;8.65;;;16.30;99.90;;;;;;5019497;28;20107;-69
2022/06/06 09:34:32;;;;;;;10.88;8.25;;;15.90;99.90;;;;;;5039966;28;20139;-72
2022/06/06 09:37:09;;;;;;;13.93;8.43;;;15.70;99.90;;;;;;4991658;28;20076;-75
2022/06/06 09:39:50;;;;;;;14.30;8.27;;;15.70;99.90;;;;;;5017609;28;20048;-72
2022/06/06 09:42:24;;;;;;;8.23;6.72;;;15.60;99.90;;;;;;5015702;28;20033;-70
2022/06/06 09:45:09;;;;;;;11.30;7.00;;;15.80;99.90;;;;;;5020073;28;20029;-71
2022/06/06 09:47:52;;;;;;;8.82;5.25;;;16.10;99.90;;;;;;5015977;28;20033;-67
2022/06/06 09:50:50;;;;;;;10.52;4.88;;;16.10;99.90;;;;;;5023956;28;20231;-71
2022/06/06 09:53:41;;;;;;;11.60;5.88;;;15.70;99.90;;;;;;5012238;28;20049;-76
2022/06/06 10:00:03;;;;;;;11.60;6.07;;;15.00;99.90;;;;;;4993574;28;20503;-67
2022/06/06 10:02:51;;;;;;;10.07;7.50;;;14.80;99.90;;;;;;5012441;28;20048;-71
2022/06/06 10:05:51;;;;;;;14.25;8.70;;;15.00;99.90;;;;;;5005877;28;20099;-68
2022/06/06 10:08:54;;;;;;;11.00;9.07;;;15.50;99.90;;;;;;5047940;28;20472;-72
2022/06/06 10:11:55;;;;;;;10.20;7.28;;;16.30;99.90;;;;;;5016224;28;20046;-70
2022/06/06 10:14:39;;;;;;;8.50;6.28;;;16.30;99.90;;;;;;4999277;28;20053;-70
2022/06/06 10:17:28;;;;;;;11.40;5.68;;;16.30;99.90;;;;;;5015557;28;20128;-74
2022/06/06 10:20:20;;;;;;;6.38;4.25;;;16.30;99.90;;;;;;5015160;28;20455;-74
2022/06/06 10:22:59;;;;;;;9.88;4.97;;;16.20;99.90;;;;;;5017706;28;20055;-71
2022/06/06 10:25:59;;;;;;;8.73;5.55;;;16.30;99.90;;;;;;5011743;28;20052;-73
2022/06/06 10:28:34;;;;;;;9.05;6.13;;;16.40;99.90;;;;;;5014619;28;20432;-72
2022/06/06 10:31:09;;;;;;;8.63;5.28;;;16.60;99.90;;;;;;5008488;28;20033;-72
2022/06/06 10:33:52;;;;;;;9.55;6.22;;;16.70;99.90;;;;;;5011822;28;20057;-72
2022/06/06 10:36:30;;;;;;;6.07;4.40;;;16.50;99.90;;;;;;5017734;28;20038;-73
2022/06/06 10:39:20;;;;;;;5.57;4.07;;;16.10;99.90;;;;;;5025833;28;20045;-69
2022/06/06 10:41:48;;;;;;;8.70;4.57;;;16.00;99.90;;;;;;5011491;28;20080;-73
2022/06/06 10:44:46;;;;;;;8.80;5.80;;;15.90;99.90;;;;;;5012591;28;20079;-72
2022/06/06 10:47:38;;;;;;;7.20;5.47;;;16.10;99.90;;;;;;4947169;28;20050;-75
2022/06/06 10:50:19;;;;;;;9.88;6.30;;;16.70;99.90;;;;;;5010830;28;20084;-74
2022/06/06 10:53:06;;;;;;;9.55;6.05;;;17.00;99.90;;;;;;5015797;28;20052;-73
2022/06/06 10:55:54;;;;;;;7.45;5.45;;;17.20;99.90;;;;;;5007502;28;20038;-75
2022/06/06 10:58:49;;;;;;;7.72;5.40;;;17.40;99.90;;;;;;4996042;28;20571;-77
2022/06/06 11:01:39;;;;;;;7.97;5.13;;;17.20;99.90;;;;;;5011898;28;20041;-69
2022/06/06 11:04:19;;;;;;;7.60;4.57;;;16.90;99.90;;;;;;5011770;28;20079;-77
2022/06/06 11:07:14;;;;;;;5.93;4.00;;;16.60;99.90;;;;;;5009538;28;20037;-72
2022/06/06 11:10:02;;;;;;;5.80;3.80;;;16.40;99.90;;;;;;5011956;28;20072;-76
2022/06/06 11:13:06;;;;;;;6.00;3.90;;;16.20;99.90;;;;;;5015639;28;20522;-75
2022/06/06 11:15:39;;;;;;;7.35;4.07;;;16.10;99.90;;;;;;4997572;28;20103;-74
2022/06/06 11:18:53;;;;;;;6.50;4.80;;;16.10;99.90;;;;;;4999227;28;20041;-73
2022/06/06 11:21:55;;;;;;;7.75;4.88;;;16.50;99.90;;;;;;4985335;28;20137;-71
2022/06/06 11:24:39;;;;;;;8.10;5.30;;;16.70;99.90;;;;;;5009251;28;20033;-77
2022/06/06 11:27:30;;;;;;;6.53;5.45;;;16.80;99.90;;;;;;5032148;28;20168;-73
2022/06/06 11:30:48;;;;;;;8.88;6.15;;;16.80;99.90;;;;;;4994579;28;20125;-70
2022/06/06 11:33:40;;;;;;;7.32;5.60;;;17.00;99.90;;;;;;4978910;28;20053;-69
2022/06/06 11:36:24;;;;;;;6.55;4.13;;;17.30;99.90;;;;;;4978943;28;20060;-73
2022/06/06 11:39:18;;;;;;;5.68;2.75;;;17.50;99.90;;;;;;4994716;28;20092;-71
2022/06/06 11:42:21;;;;;;;6.03;3.20;;;17.80;99.90;;;;;;4994798;28;20696;-70
2022/06/06 11:44:58;;;;;;;5.05;1.88;;;18.00;99.90;;;;;;4995749;28;20065;-74
2022/06/06 11:47:39;;;;;;;2.78;1.80;;;17.90;99.90;;;;;;5012187;28;20511;-74
2022/06/06 11:50:26;;;;;;;2.80;2.50;;;17.80;99.90;;;;;;5013974;28;20041;-74
2022/06/06 11:53:07;;;;;;;5.63;2.20;;;17.70;99.90;;;;;;5013428;28;20145;-72
2022/06/06 11:55:38;;;;;;;4.80;2.47;;;17.70;99.90;;;;;;5013085;28;20056;-69
2022/06/06 11:58:04;;;;;;;4.78;2.00;;;17.70;99.90;;;;;;5014474;28;20495;-70
2022/06/06 12:00:57;;;;;;;3.85;2.00;;;17.50;99.90;;;;;;5013724;28;20037;-70
2022/06/06 12:03:47;;;;;;;2.92;1.92;;;17.30;99.90;;;;;;5011451;28;20068;-70
2022/06/06 12:06:38;;;;;;;2.97;1.40;;;17.30;99.90;;;;;;4994708;28;20046;-74
2022/06/06 12:09:12;;;;;;;2.10;1.60;;;17.30;99.90;;;;;;4994309;28;20052;-71
2022/06/06 12:11:50;;;;;;;3.13;1.60;;;17.30;99.90;;;;;;5001733;28;20516;-74
2022/06/06 12:14:55;;;;;;;2.35;1.77;;;17.30;99.90;;;;;;5013082;28;20128;-76
2022/06/06 12:17:55;;;;;;;4.40;1.95;;;17.40;99.90;;;;;;4958337;28;20400;-73
2022/06/06 12:20:30;;;;;;;5.50;2.40;;;17.30;99.90;;;;;;4972836;28;20503;-76
2022/06/06 12:23:04;;;;;;;2.60;2.33;;;17.30;99.90;;;;;;5003402;28;20076;-75
2022/06/06 12:25:46;;;;;;;3.70;2.50;;;17.30;99.90;;;;;;5009717;28;20046;-75
2022/06/06 12:28:47;;;;;;;3.83;2.47;;;17.30;99.90;;;;;;4998287;28;20049;-73
2022/06/06 12:31:36;;;;;;;4.70;2.75;;;17.30;99.90;;;;;;5013602;28;20041;-74
2022/06/06 12:34:30;;;;;;;4.57;3.30;;;17.30;99.90;;;;;;5013135;28;20049;-73
2022/06/06 12:37:09;;;;;;;6.95;3.20;;;17.30;99.90;;;;;;4994220;28;20408;-77
2022/06/06 12:39:40;;;;;;;5.22;3.30;;;17.40;99.90;;;;;;4993312;28;20511;-71
2022/06/06 12:42:09;;;;;;;4.90;3.13;;;17.50;99.90;;;;;;5012606;28;20052;-76
2022/06/06 12:44:44;;;;;;;4.38;3.40;;;17.60;99.90;;;;;;4997336;28;20452;-73
2022/06/06 12:47:10;;;;;;;4.03;2.92;;;17.40;99.90;;;;;;5009409;28;20377;-75
2022/06/06 12:50:08;;;;;;;5.55;3.10;;;17.40;99.90;;;;;;5012960;28;20047;-71
2022/06/06 12:52:40;;;;;;;3.90;2.97;;;17.40;99.90;;;;;;5011601;28;20507;-76
2022/06/06 12:58:58;;;;;;;4.40;2.70;;;17.30;99.90;;;;;;4998282;28;20399;-70
2022/06/06 13:01:40;;;;;;;5.68;2.42;;;17.30;99.90;;;;;;5002526;28;20116;-76
2022/06/06 13:04:27;;;;;;;4.30;2.40;;;17.30;99.90;;;;;;4996955;28;20041;-69
2022/06/06 13:07:27;;;;;;;4.45;2.72;;;17.30;99.90;;;;;;5009104;28;20102;-72
2022/06/06 13:10:28;;;;;;;5.18;2.50;;;17.30;99.90;;;;;;5008482;28;20100;-77
2022/06/06 13:13:23;;;;;;;3.75;2.58;;;17.10;99.90;;;;;;5065244;28;20127;-75
2022/06/06 13:16:26;;;;;;;6.38;3.42;;;16.90;99.90;;;;;;5046667;28;20101;-75
2022/06/06 13:19:05;;;;;;;5.28;3.85;;;16.70;99.90;;;;;;5032440;28;20101;-77
2022/06/06 13:21:50;;;;;;;6.45;4.10;;;16.50;99.90;;;;;;5032204;28;20041;-74
2022/06/06 13:24:53;;;;;;;8.75;4.80;;;16.30;99.90;;;;;;5031366;28;20450;-73
2022/06/06 13:27:30;;;;;;;7.35;5.45;;;16.10;99.90;;;;;;5033134;28;20049;-72
2022/06/06 13:29:55;;;;;;;7.47;5.10;;;15.80;99.90;;;;;;5033051;28;20083;-67
2022/06/06 13:32:34;;;;;;;10.18;5.90;;;15.50;99.90;;;;;;5016220;28;20037;-77
2022/06/06 13:35:30;;;;;;;7.38;5.70;;;15.30;99.90;;;;;;5032735;28;20140;-71
2022/06/06 13:38:06;;;;;;;9.80;5.82;;;15.20;99.90;;;;;;5031991;28;20041;-72
2022/06/06 13:40:44;;;;;;;7.10;5.07;;;15.20;99.90;;;;;;5032101;28;20040;-71
2022/06/06 13:43:37;;;;;;;6.97;4.60;;;15.20;99.90;;;;;;5037453;28;20404;-70
2022/06/06 13:46:18;;;;;;;;;;;14.90;99.90;;;;;;5017867;28;20053;-68
2022/06/06 13:49:01;;;;;;;8.75;4.70;;;14.80;99.90;;;;;;5034319;28;19927;-71
2022/06/06 13:51:40;;;;;;;6.05;5.18;;;14.90;99.90;;;;;;5030095;28;20056;-69
2022/06/06 13:54:08;;;;;;;7.25;5.05;;;14.70;99.90;;;;;;5059466;28;20086;-70
2022/06/06 13:56:49;;;;;;;8.63;5.15;;;14.70;99.90;;;;;;5057183;28;20056;-71
2022/06/06 13:59:42;;;;;;;6.63;4.80;;;14.80;99.90;;;;;;5029910;28;20163;-69
2022/06/06 14:02:43;;;;;;;9.57;4.35;;;14.70;99.90;;;;;;5023177;28;20479;-70
2022/06/06 14:05:36;;;;;;;6.60;4.53;;;14.70;99.90;;;;;;5064547;28;20742;-72
2022/06/06 14:08:20;;;;;;;8.18;5.10;;;14.80;99.90;;;;;;5034583;28;20179;-73
2022/06/06 14:11:05;;;;;;;7.13;5.15;;;14.90;99.90;;;;;;5058674;28;20482;-67